createdAt,value
2019-05-14T00:01:25.227Z,51.60
2019-05-14T00:03:52.733Z,51.99
2019-05-14T00:06:21.930Z,52.49
2019-05-14T00:08:49.472Z,51.89
2019-05-14T00:11:16.727Z,52.17
2019-05-14T00:13:43.883Z,52.11
2019-05-14T00:16:11.873Z,52.03
2019-05-14T00:18:39.228Z,51.97
2019-05-14T00:21:06.598Z,52.00
2019-05-14T00:23:33.947Z,52.07
2019-05-14T00:26:01.821Z,52.81
2019-05-14T00:28:31.551Z,53.38
2019-05-14T00:30:58.389Z,52.89
2019-05-14T00:33:25.655Z,52.10
2019-05-14T00:35:52.908Z,52.78
2019-05-14T00:38:22.365Z,52.44
2019-05-14T00:40:51.186Z,52.02
2019-05-14T00:43:18.150Z,52.60
2019-05-14T00:45:45.328Z,52.95
2019-05-14T00:48:13.057Z,53.07
2019-05-14T00:50:42.109Z,52.40
2019-05-14T00:53:11.662Z,52.82
2019-05-14T00:55:38.665Z,52.99
2019-05-14T00:58:05.850Z,52.66
2019-05-14T01:00:33.104Z,52.58
2019-05-14T01:03:02.058Z,53.13
2019-05-14T01:05:29.436Z,53.88
2019-05-14T01:07:56.571Z,52.90
2019-05-14T01:10:24.055Z,54.20
2019-05-14T01:12:52.045Z,53.78
2019-05-14T01:15:21.512Z,53.33
2019-05-14T01:17:48.699Z,53.76
2019-05-14T01:20:16.288Z,54.03
2019-05-14T01:22:43.460Z,54.04
2019-05-14T01:25:12.010Z,54.09
2019-05-14T01:27:41.364Z,54.34
2019-05-14T01:30:12.271Z,54.09
2019-05-14T01:32:39.189Z,54.05
2019-05-14T01:35:06.647Z,54.64
2019-05-14T01:37:33.801Z,54.61
2019-05-14T01:40:01.357Z,54.57
2019-05-14T01:42:28.607Z,54.50
2019-05-14T01:44:55.867Z,54.58
2019-05-14T01:47:23.131Z,54.85
2019-05-14T01:49:51.464Z,54.36
2019-05-14T01:52:19.063Z,54.63
2019-05-14T01:54:46.325Z,54.70
2019-05-14T01:57:13.468Z,55.27
2019-05-14T01:59:42.849Z,55.05
2019-05-14T02:02:11.576Z,55.53
2019-05-14T02:04:39.358Z,55.88
2019-05-14T02:07:06.818Z,55.70
2019-05-14T02:09:34.059Z,55.79
2019-05-14T02:12:02.180Z,55.92
2019-05-14T02:14:31.457Z,56.76
2019-05-14T02:16:59.143Z,55.49
2019-05-14T02:19:26.316Z,56.64
2019-05-14T02:21:53.569Z,56.48
2019-05-14T02:24:21.817Z,57.58
2019-05-14T02:26:51.515Z,56.19
2019-05-14T02:29:18.560Z,56.55
2019-05-14T02:31:45.842Z,55.90
2019-05-14T02:34:13.203Z,57.57
2019-05-14T02:36:40.583Z,57.48
2019-05-14T02:39:10.283Z,58.30
2019-05-14T02:41:39.139Z,57.04
2019-05-14T02:44:09.505Z,57.43
2019-05-14T02:46:35.857Z,56.94
2019-05-14T02:49:03.519Z,58.22
2019-05-14T02:51:30.651Z,57.46
2019-05-14T02:53:59.157Z,57.95
2019-05-14T02:56:29.306Z,57.30
2019-05-14T02:58:55.840Z,58.90
2019-05-14T03:01:23.331Z,58.21
2019-05-14T03:03:50.808Z,58.60
2019-05-14T03:06:20.165Z,58.11
2019-05-14T03:08:49.426Z,59.01
2019-05-14T03:11:20.138Z,58.12
2019-05-14T03:13:49.544Z,59.38
2019-05-14T03:16:26.617Z,59.28
2019-05-14T03:18:45.448Z,58.96
2019-05-14T03:21:12.804Z,58.06
2019-05-14T03:23:40.168Z,59.84
2019-05-14T03:26:09.657Z,59.57
2019-05-14T03:28:39.838Z,60.27
2019-05-14T03:31:06.276Z,60.60
2019-05-14T03:33:34.475Z,60.56
2019-05-14T03:36:09.387Z,60.14
2019-05-14T03:38:31.920Z,60.23
2019-05-14T03:41:00.241Z,60.89
2019-05-14T03:43:29.555Z,59.58
2019-05-14T03:45:59.350Z,59.86
2019-05-14T03:48:29.650Z,60.73
2019-05-14T03:50:56.158Z,61.39
2019-05-14T03:53:23.621Z,61.17
2019-05-14T03:55:51.235Z,61.66
2019-05-14T03:58:21.322Z,62.37
2019-05-14T04:00:55.082Z,61.95
2019-05-14T04:03:23.354Z,60.91
2019-05-14T04:05:52.430Z,61.45
2019-05-14T04:08:21.935Z,61.91
2019-05-14T04:10:54.440Z,62.17
2019-05-14T04:13:23.707Z,62.04
2019-05-14T04:15:53.606Z,61.53
2019-05-14T04:18:24.701Z,61.86
2019-05-14T04:20:58.979Z,62.22
2019-05-14T04:23:25.231Z,62.22
2019-05-14T04:25:53.392Z,62.42
2019-05-14T04:28:22.123Z,62.67
2019-05-14T04:30:52.906Z,63.06
2019-05-14T04:33:23.923Z,61.52
2019-05-14T04:35:52.479Z,63.21
2019-05-14T04:38:20.302Z,62.59
2019-05-14T04:40:49.546Z,63.05
2019-05-14T04:43:19.248Z,63.05
2019-05-14T04:45:49.625Z,63.11
2019-05-14T04:48:28.915Z,63.17
2019-05-14T04:50:49.757Z,63.53
2019-05-14T04:53:19.245Z,62.89
2019-05-14T04:55:45.587Z,62.58
2019-05-14T04:58:13.162Z,62.63
2019-05-14T05:00:40.525Z,62.73
2019-05-14T05:03:12.329Z,62.88
2019-05-14T05:05:39.352Z,62.93
2019-05-14T05:08:08.871Z,62.61
2019-05-14T05:10:35.859Z,62.60
2019-05-14T05:13:03.200Z,62.34
2019-05-14T05:15:30.899Z,61.83
2019-05-14T05:17:58.889Z,61.36
2019-05-14T05:20:29.047Z,60.92
2019-05-14T05:22:55.689Z,60.86
2019-05-14T05:25:23.147Z,61.00
2019-05-14T05:27:50.307Z,60.72
2019-05-14T05:30:19.038Z,60.18
2019-05-14T05:32:46.389Z,59.50
2019-05-14T05:35:13.868Z,59.56
2019-05-14T05:37:41.034Z,59.22
2019-05-14T05:40:09.276Z,58.20
2019-05-14T05:42:38.608Z,57.13
2019-05-14T05:45:08.104Z,55.48
2019-05-14T05:47:35.507Z,54.39
2019-05-14T05:50:03.842Z,53.45
2019-05-14T05:52:30.980Z,51.82
2019-05-14T05:54:58.508Z,50.90
2019-05-14T05:57:28.402Z,50.30
2019-05-14T05:59:55.102Z,50.02
2019-05-14T06:02:22.647Z,49.57
2019-05-14T06:04:51.708Z,49.15
2019-05-14T06:07:18.995Z,49.75
2019-05-14T06:09:48.312Z,48.53
2019-05-14T06:12:15.508Z,48.79
2019-05-14T06:14:42.890Z,50.14
2019-05-14T06:17:10.176Z,49.50
2019-05-14T06:19:38.152Z,49.42
2019-05-14T06:22:05.842Z,49.55
2019-05-14T06:24:33.301Z,49.45
2019-05-14T06:27:00.534Z,49.90
2019-05-14T06:29:28.984Z,49.24
2019-05-14T06:31:58.783Z,50.61
2019-05-14T06:34:25.810Z,50.10
2019-05-14T06:36:52.985Z,50.94
2019-05-14T06:39:20.179Z,50.43
2019-05-14T06:41:49.062Z,49.72
2019-05-14T06:44:18.708Z,49.95
2019-05-14T06:46:48.422Z,49.01
2019-05-14T06:49:15.097Z,49.75
2019-05-14T06:51:42.348Z,48.92
2019-05-14T06:54:09.648Z,49.89
2019-05-14T06:56:38.566Z,49.41
2019-05-14T06:59:08.810Z,49.44
2019-05-14T07:01:35.694Z,49.77
2019-05-14T07:04:03.204Z,49.30
2019-05-14T07:06:30.583Z,48.10
2019-05-14T07:08:58.857Z,48.41
2019-05-14T07:11:26.198Z,48.06
2019-05-14T07:13:53.342Z,48.58
2019-05-14T07:16:20.643Z,49.00
2019-05-14T07:18:52.806Z,48.11
2019-05-14T07:21:18.625Z,48.37
2019-05-14T07:23:48.681Z,48.36
2019-05-14T07:26:15.200Z,48.40
2019-05-14T07:28:42.712Z,47.65
2019-05-14T07:31:10.077Z,47.65
2019-05-14T07:33:38.885Z,47.06
2019-05-14T07:36:08.840Z,46.98
2019-05-14T07:38:35.735Z,47.54
2019-05-14T07:41:03.017Z,47.49
2019-05-14T07:43:30.196Z,47.29
2019-05-14T07:45:58.238Z,47.17
2019-05-14T07:48:26.341Z,47.33
2019-05-14T07:50:55.078Z,46.83
2019-05-14T07:53:35.200Z,47.20
2019-05-14T07:55:51.415Z,46.11
2019-05-14T07:58:19.592Z,45.71
2019-05-14T08:00:49.207Z,45.94
2019-05-14T08:03:18.856Z,46.12
2019-05-14T08:05:48.132Z,44.71
2019-05-14T08:08:14.890Z,44.23
2019-05-14T08:10:42.348Z,43.98
2019-05-14T08:13:09.607Z,42.65
2019-05-14T08:15:38.753Z,43.00
2019-05-14T08:18:08.092Z,43.47
2019-05-14T08:20:35.210Z,42.57
2019-05-14T08:23:02.671Z,43.03
2019-05-14T08:25:30.140Z,43.08
2019-05-14T08:27:58.666Z,42.20
2019-05-14T08:30:28.365Z,41.14
2019-05-14T08:32:55.497Z,40.71
2019-05-14T08:35:22.694Z,39.56
2019-05-14T08:38:03.442Z,39.94
2019-05-14T08:40:21.111Z,40.64
2019-05-14T08:42:49.094Z,39.70
2019-05-14T08:45:18.830Z,38.91
2019-05-14T08:47:48.108Z,39.85
2019-05-14T08:50:18.739Z,39.09
2019-05-14T08:52:48.136Z,39.82
2019-05-14T08:55:15.452Z,37.65
2019-05-14T08:57:42.846Z,39.62
2019-05-14T09:00:13.787Z,38.55
2019-05-14T09:02:40.459Z,36.97
2019-05-14T09:05:10.187Z,35.68
2019-05-14T09:07:38.426Z,34.92
2019-05-14T09:10:08.689Z,34.84
2019-05-14T09:12:35.993Z,34.53
2019-05-14T09:15:03.709Z,33.80
2019-05-14T09:17:31.095Z,34.95
2019-05-14T09:20:06.286Z,33.63
2019-05-14T09:22:28.916Z,33.14
2019-05-14T09:24:59.867Z,33.11
2019-05-14T09:27:25.822Z,34.39
2019-05-14T09:29:53.382Z,33.02
2019-05-14T09:32:20.783Z,32.70
2019-05-14T09:34:48.808Z,32.77
2019-05-14T09:37:19.335Z,33.60
2019-05-14T09:39:45.576Z,33.40
2019-05-14T09:42:12.893Z,33.02
2019-05-14T09:44:40.116Z,33.38
2019-05-14T09:47:08.554Z,32.80
2019-05-14T09:49:38.622Z,34.07
2019-05-14T09:52:05.805Z,33.06
2019-05-14T09:54:33.212Z,31.72
2019-05-14T09:57:00.428Z,30.34
2019-05-14T09:59:28.100Z,31.23
2019-05-14T10:01:55.713Z,30.97
2019-05-14T10:04:22.964Z,29.13
2019-05-14T10:06:50.234Z,29.15
2019-05-14T10:09:17.981Z,29.29
2019-05-14T10:11:45.596Z,28.64
2019-05-14T10:14:12.900Z,27.24
2019-05-14T10:16:40.591Z,27.26
2019-05-14T10:19:08.014Z,27.41
2019-05-14T10:21:35.547Z,25.47
2019-05-14T10:24:02.929Z,26.23
2019-05-14T10:26:30.323Z,25.58
2019-05-14T10:28:59.051Z,24.01
2019-05-14T10:31:28.986Z,23.76
2019-05-14T10:33:56.077Z,22.40
2019-05-14T10:36:23.435Z,21.78
2019-05-14T10:38:50.862Z,21.63
2019-05-14T10:41:18.779Z,22.01
2019-05-14T10:43:46.324Z,21.16
2019-05-14T10:46:13.614Z,21.84
2019-05-14T10:48:41.006Z,21.50
2019-05-14T10:51:09.884Z,20.91
2019-05-14T10:53:37.528Z,19.33
2019-05-14T10:56:05.038Z,19.85
2019-05-14T10:58:32.382Z,19.55
2019-05-14T11:00:59.846Z,18.97
2019-05-14T11:03:30.201Z,17.92
2019-05-14T11:05:58.596Z,17.32
2019-05-14T11:08:25.717Z,18.29
2019-05-14T11:10:52.949Z,18.27
2019-05-14T11:13:20.312Z,18.71
2019-05-14T11:15:48.676Z,19.71
2019-05-14T11:18:16.169Z,19.80
2019-05-14T11:20:43.587Z,19.44
2019-05-14T11:23:10.830Z,17.45
2019-05-14T11:25:38.494Z,19.12
2019-05-14T11:28:05.846Z,17.09
2019-05-14T11:30:33.243Z,17.82
2019-05-14T11:33:00.729Z,18.28
2019-05-14T11:35:28.803Z,17.10
2019-05-14T11:37:58.673Z,16.62
2019-05-14T11:40:25.656Z,17.44
2019-05-14T11:42:52.916Z,15.81
2019-05-14T11:45:20.778Z,15.50
2019-05-14T11:47:48.885Z,16.58
2019-05-14T11:50:19.280Z,16.67
2019-05-14T11:52:48.286Z,15.27
2019-05-14T11:55:18.504Z,15.60
2019-05-14T11:57:45.133Z,15.23
2019-05-14T12:00:13.614Z,14.76
2019-05-14T12:02:40.990Z,16.15
2019-05-14T12:05:26.295Z,15.40
2019-05-14T12:07:53.515Z,15.00
2019-05-14T12:10:20.990Z,17.36
2019-05-14T12:12:48.906Z,16.85
2019-05-14T12:15:18.766Z,16.97
2019-05-14T12:17:50.580Z,17.06
2019-05-14T12:20:18.332Z,15.90
2019-05-14T12:22:48.797Z,16.04
2019-05-14T12:25:18.623Z,15.17
2019-05-14T12:27:45.592Z,15.28
2019-05-14T12:30:14.104Z,18.71
2019-05-14T12:32:41.462Z,16.57
2019-05-14T12:35:09.329Z,16.89
2019-05-14T12:37:40.058Z,16.23
2019-05-14T12:40:08.811Z,16.39
2019-05-14T12:42:39.173Z,16.38
2019-05-14T12:45:09.146Z,18.14
2019-05-14T12:47:38.743Z,19.19
2019-05-14T12:50:09.282Z,17.81
2019-05-14T12:52:38.667Z,18.02
2019-05-14T12:55:09.187Z,18.76
2019-05-14T12:57:39.008Z,19.72
2019-05-14T13:00:05.549Z,19.86
2019-05-14T13:02:32.830Z,18.54
2019-05-14T13:05:00.864Z,18.24
2019-05-14T13:07:28.191Z,18.57
2019-05-14T13:09:55.487Z,19.92
2019-05-14T13:12:22.850Z,21.10
2019-05-14T13:14:50.210Z,20.90
2019-05-14T13:17:18.734Z,20.44
2019-05-14T13:19:48.557Z,20.53
2019-05-14T13:22:19.032Z,17.97
2019-05-14T13:24:44.779Z,21.24
2019-05-14T13:27:11.927Z,19.47
2019-05-14T13:29:39.158Z,21.39
2019-05-14T13:32:12.050Z,19.60
2019-05-14T13:34:35.596Z,19.65
2019-05-14T13:37:03.074Z,19.41
2019-05-14T13:39:30.437Z,21.55
2019-05-14T13:41:58.961Z,19.91
2019-05-14T13:44:28.959Z,19.97
2019-05-14T13:46:55.533Z,20.57
2019-05-14T13:49:22.792Z,20.06
2019-05-14T13:51:50.131Z,20.59
2019-05-14T13:54:19.254Z,20.66
2019-05-14T13:56:48.378Z,20.21
2019-05-14T13:59:15.659Z,22.40
2019-05-14T14:01:43.075Z,20.73
2019-05-14T14:04:14.751Z,21.51
2019-05-14T14:06:39.555Z,22.58
2019-05-14T14:09:12.250Z,22.96
2019-05-14T14:11:38.382Z,23.23
2019-05-14T14:14:08.790Z,23.16
2019-05-14T14:16:35.851Z,22.32
2019-05-14T14:19:04.006Z,21.84
2019-05-14T14:21:31.815Z,23.19
2019-05-14T14:23:59.445Z,22.29
2019-05-14T14:26:29.191Z,22.92
2019-05-14T14:28:56.327Z,23.31
2019-05-14T14:31:23.500Z,23.47
2019-05-14T14:33:50.978Z,22.80
2019-05-14T14:36:19.926Z,22.91
2019-05-14T14:38:49.447Z,23.96
2019-05-14T14:41:19.215Z,22.98
2019-05-14T14:43:52.011Z,23.92
2019-05-14T14:46:15.961Z,23.17
2019-05-14T14:48:43.666Z,23.58
2019-05-14T14:51:10.814Z,22.67
2019-05-14T14:53:52.461Z,23.83
2019-05-14T14:56:09.392Z,23.57
2019-05-14T14:58:39.010Z,24.41
2019-05-14T15:01:08.912Z,23.52
2019-05-14T15:03:36.529Z,24.63
2019-05-14T15:06:03.915Z,23.83
2019-05-14T15:08:31.052Z,23.29
2019-05-14T15:10:59.299Z,22.93
2019-05-14T15:13:26.870Z,24.01
2019-05-14T15:15:54.327Z,23.72
2019-05-14T15:18:21.616Z,24.82
2019-05-14T15:20:49.143Z,24.94
2019-05-14T15:23:19.458Z,25.53
2019-05-14T15:25:46.056Z,25.31
2019-05-14T15:28:13.297Z,25.45
2019-05-14T15:30:40.609Z,26.46
2019-05-14T15:33:09.189Z,25.83
2019-05-14T15:35:36.650Z,26.63
2019-05-14T15:38:04.038Z,26.77
2019-05-14T15:40:31.402Z,26.92
2019-05-14T15:43:01.881Z,27.11
2019-05-14T15:45:28.747Z,27.63
2019-05-14T15:48:00.878Z,27.52
2019-05-14T15:50:25.339Z,26.83
2019-05-14T15:52:52.708Z,26.63
2019-05-14T15:55:19.964Z,27.07
2019-05-14T15:57:47.372Z,26.63
2019-05-14T16:00:15.042Z,26.58
2019-05-14T16:02:42.461Z,26.26
2019-05-14T16:05:10.449Z,26.44
2019-05-14T16:07:39.066Z,26.93
2019-05-14T16:10:08.558Z,26.34
2019-05-14T16:12:39.476Z,27.00
2019-05-14T16:15:08.624Z,26.12
2019-05-14T16:17:45.533Z,26.06
2019-05-14T16:20:08.952Z,26.49
2019-05-14T16:22:39.343Z,26.86
2019-05-14T16:25:08.626Z,26.99
2019-05-14T16:27:35.145Z,26.60
2019-05-14T16:30:02.870Z,26.90
2019-05-14T16:32:30.046Z,27.26
2019-05-14T16:34:58.067Z,27.39
2019-05-14T16:37:25.393Z,26.89
2019-05-14T16:39:52.656Z,26.88
2019-05-14T16:42:20.811Z,26.83
2019-05-14T16:44:48.282Z,26.89
2019-05-14T16:47:15.458Z,27.38
2019-05-14T16:49:42.610Z,27.51
2019-05-14T16:52:10.999Z,28.18
2019-05-14T16:54:39.462Z,28.37
2019-05-14T16:57:11.109Z,27.80
2019-05-14T16:59:39.299Z,27.89
2019-05-14T17:02:05.813Z,27.89
2019-05-14T17:04:33.184Z,27.34
2019-05-14T17:07:00.758Z,27.69
2019-05-14T17:09:28.400Z,26.94
2019-05-14T17:11:55.829Z,27.84
2019-05-14T17:14:23.009Z,27.09
2019-05-14T17:16:50.162Z,27.56
2019-05-14T17:19:18.792Z,27.59
2019-05-14T17:21:48.565Z,27.95
2019-05-14T17:24:15.477Z,28.09
2019-05-14T17:26:42.753Z,28.44
2019-05-14T17:29:10.271Z,28.92
2019-05-14T17:31:39.090Z,29.25
2019-05-14T17:34:08.745Z,29.79
2019-05-14T17:36:38.967Z,30.12
2019-05-14T17:39:08.589Z,30.83
2019-05-14T17:41:36.084Z,30.89
2019-05-14T17:44:04.184Z,31.39
2019-05-14T17:46:31.338Z,31.23
2019-05-14T17:48:59.133Z,31.78
2019-05-14T17:51:28.451Z,32.05
2019-05-14T17:53:55.873Z,31.82
2019-05-14T17:56:23.395Z,32.17
2019-05-14T17:58:50.767Z,32.49
2019-05-14T18:01:18.483Z,32.89
2019-05-14T18:03:48.851Z,33.01
2019-05-14T18:06:15.649Z,32.88
2019-05-14T18:08:43.045Z,33.30
2019-05-14T18:11:10.220Z,33.68
2019-05-14T18:13:39.009Z,33.65
2019-05-14T18:16:08.990Z,33.73
2019-05-14T18:18:36.321Z,34.35
2019-05-14T18:21:03.932Z,33.96
2019-05-14T18:23:31.227Z,33.85
2019-05-14T18:26:08.078Z,34.34
2019-05-14T18:28:28.789Z,34.75
2019-05-14T18:30:58.583Z,34.91
2019-05-14T18:33:25.334Z,35.05
2019-05-14T18:35:52.497Z,34.59
2019-05-14T18:38:19.877Z,35.27
2019-05-14T18:40:49.437Z,35.54
2019-05-14T18:43:18.644Z,35.90
2019-05-14T18:45:47.972Z,36.17
2019-05-14T18:48:14.528Z,35.51
2019-05-14T18:50:41.914Z,36.40
2019-05-14T18:53:12.846Z,37.08
2019-05-14T18:55:38.834Z,37.24
2019-05-14T18:58:08.404Z,36.87
2019-05-14T19:00:35.584Z,37.64
2019-05-14T19:03:02.965Z,38.33
2019-05-14T19:05:31.253Z,38.51
2019-05-14T19:07:59.267Z,38.90
2019-05-14T19:10:28.061Z,38.80
2019-05-14T19:12:55.517Z,39.36
2019-05-14T19:15:24.207Z,39.42
2019-05-14T19:17:51.383Z,39.02
2019-05-14T19:20:19.471Z,40.43
2019-05-14T19:22:49.206Z,41.17
2019-05-14T19:25:19.070Z,40.63
2019-05-14T19:27:49.645Z,41.97
2019-05-14T19:30:19.125Z,42.05
2019-05-14T19:32:48.537Z,42.19
2019-05-14T19:35:15.742Z,42.55
2019-05-14T19:37:43.065Z,42.57
2019-05-14T19:40:10.686Z,42.69
2019-05-14T19:42:39.253Z,43.44
2019-05-14T19:45:12.580Z,43.12
2019-05-14T19:47:43.384Z,43.82
2019-05-14T19:50:12.577Z,44.27
2019-05-14T19:52:40.447Z,44.51
2019-05-14T19:55:15.772Z,45.32
2019-05-14T19:57:45.050Z,45.03
2019-05-14T20:00:18.568Z,44.06
2019-05-14T20:02:46.011Z,46.16
2019-05-14T20:05:13.651Z,45.29
2019-05-14T20:07:40.834Z,44.94
2019-05-14T20:10:08.942Z,44.50
2019-05-14T20:12:39.186Z,45.03
2019-05-14T20:15:09.130Z,44.42
2019-05-14T20:17:38.220Z,44.88
2019-05-14T20:20:05.855Z,44.58
2019-05-14T20:22:33.156Z,45.01
2019-05-14T20:25:00.875Z,45.46
2019-05-14T20:27:28.309Z,46.09
2019-05-14T20:29:57.713Z,45.74
2019-05-14T20:32:24.787Z,46.99
2019-05-14T20:34:51.968Z,46.73
2019-05-14T20:37:19.147Z,46.96
2019-05-14T20:39:48.343Z,47.85
2019-05-14T20:42:18.336Z,46.27
2019-05-14T20:44:44.949Z,46.79
2019-05-14T20:47:12.244Z,48.09
2019-05-14T20:49:39.608Z,47.43
2019-05-14T20:52:08.520Z,46.45
2019-05-14T20:54:36.035Z,47.36
2019-05-14T20:57:03.568Z,48.59
2019-05-14T20:59:30.938Z,48.03
2019-05-14T21:01:59.391Z,47.78
2019-05-14T21:04:28.207Z,48.53
2019-05-14T21:06:55.511Z,49.23
2019-05-14T21:09:22.683Z,48.97
2019-05-14T21:11:49.844Z,47.52
2019-05-14T21:14:18.250Z,48.56
2019-05-14T21:16:45.576Z,48.23
2019-05-14T21:19:12.832Z,48.48
2019-05-14T21:21:39.995Z,48.47
2019-05-14T21:24:08.830Z,48.91
2019-05-14T21:26:36.311Z,49.70
2019-05-14T21:29:03.798Z,49.54
2019-05-14T21:31:33.437Z,50.67
2019-05-14T21:34:01.013Z,49.85
2019-05-14T21:36:28.501Z,50.83
2019-05-14T21:38:55.845Z,49.77
2019-05-14T21:41:23.112Z,50.65
2019-05-14T21:43:50.287Z,51.49
2019-05-14T21:46:19.446Z,49.01
2019-05-14T21:48:47.837Z,50.29
2019-05-14T21:51:15.174Z,50.30
2019-05-14T21:53:42.578Z,50.42
2019-05-14T21:56:09.876Z,48.87
2019-05-14T21:58:38.757Z,49.43
2019-05-14T22:01:08.603Z,50.69
2019-05-14T22:03:35.976Z,50.29
2019-05-14T22:06:03.432Z,50.76
2019-05-14T22:08:30.617Z,49.79
2019-05-14T22:10:58.537Z,50.59
2019-05-14T22:13:28.288Z,53.89
2019-05-14T22:15:55.179Z,53.74
2019-05-14T22:18:22.551Z,54.21
2019-05-14T22:20:50.134Z,54.79
2019-05-14T22:23:17.887Z,53.78
2019-05-14T22:25:48.595Z,53.16
2019-05-14T22:28:18.309Z,55.17
2019-05-14T22:30:45.146Z,53.09
2019-05-14T22:33:12.292Z,53.38
2019-05-14T22:35:39.927Z,53.53
2019-05-14T22:38:07.498Z,55.71
2019-05-14T22:40:34.769Z,56.32
2019-05-14T22:43:01.942Z,53.92
2019-05-14T22:45:29.406Z,53.65
2019-05-14T22:47:58.806Z,53.19
2019-05-14T22:50:25.634Z,52.86
2019-05-14T22:52:52.792Z,52.47
2019-05-14T22:55:20.170Z,51.67
2019-05-14T22:57:48.302Z,54.25
2019-05-14T23:00:20.731Z,55.31
2019-05-14T23:02:45.149Z,56.70
2019-05-14T23:05:12.909Z,57.05
2019-05-14T23:07:40.171Z,55.44
2019-05-14T23:10:08.963Z,58.55
2019-05-14T23:12:38.554Z,57.50
2019-05-14T23:15:06.508Z,56.92
2019-05-14T23:17:33.657Z,57.58
2019-05-14T23:20:01.150Z,54.77
2019-05-14T23:22:29.662Z,56.45
2019-05-14T23:24:59.217Z,55.87
2019-05-14T23:27:26.330Z,58.77
2019-05-14T23:29:53.944Z,59.00
2019-05-14T23:32:21.307Z,60.95
2019-05-14T23:34:48.914Z,59.58
2019-05-14T23:37:18.157Z,62.00
2019-05-14T23:39:46.029Z,60.35
2019-05-14T23:42:13.274Z,61.56
2019-05-14T23:44:40.535Z,62.42
2019-05-14T23:47:08.302Z,62.80
2019-05-14T23:49:35.870Z,61.42
2019-05-14T23:52:03.318Z,62.36
2019-05-14T23:54:30.589Z,62.36
2019-05-14T23:56:58.444Z,60.83
2019-05-14T23:59:25.791Z,59.61
